sensor_id;sensor_type;location;lat;lon;timestamp;pressure;altitude;pressure_sealevel;temperature;humidity
40596;BME280;26304;48.794;9.820;2024-03-25T00:01:01;95535.47;;;14.95;58.46
40596;BME280;26304;48.794;9.820;2024-03-25T00:03:25;95531.34;;;14.98;58.37
40596;BME280;26304;48.794;9.820;2024-03-25T00:05:46;95534.31;;;14.96;58.81
40596;BME280;26304;48.794;9.820;2024-03-25T00:08:09;95535.09;;;14.97;58.12
40596;BME280;26304;48.794;9.820;2024-03-25T00:10:30;95534.31;;;14.93;57.13
40596;BME280;26304;48.794;9.820;2024-03-25T00:12:52;95529.44;;;14.91;58.66
40596;BME280;26304;48.794;9.820;2024-03-25T00:15:15;95536.94;;;14.96;58.01
40596;BME280;26304;48.794;9.820;2024-03-25T00:17:38;95534.28;;;14.89;57.64
40596;BME280;26304;48.794;9.820;2024-03-25T00:20:01;95534.28;;;14.89;56.95
40596;BME280;26304;48.794;9.820;2024-03-25T00:22:27;95534.28;;;14.89;59.02
40596;BME280;26304;48.794;9.820;2024-03-25T00:24:48;95530.59;;;14.94;58.19
40596;BME280;26304;48.794;9.820;2024-03-25T00:27:11;95527.56;;;14.92;58.58
40596;BME280;26304;48.794;9.820;2024-03-25T00:29:32;95522.75;;;14.94;57.79
40596;BME280;26304;48.794;9.820;2024-03-25T00:31:55;95524.59;;;14.93;58.97
40596;BME280;26304;48.794;9.820;2024-03-25T00:34:16;95521.59;;;14.91;58.56
40596;BME280;26304;48.794;9.820;2024-03-25T00:36:40;95527.91;;;14.86;58.41
40596;BME280;26304;48.794;9.820;2024-03-25T00:39:02;95517.88;;;14.92;57.58
40596;BME280;26304;48.794;9.820;2024-03-25T00:41:24;95518.97;;;14.95;58.03
40596;BME280;26304;48.794;9.820;2024-03-25T00:43:46;95513.38;;;14.93;57.76
40596;BME280;26304;48.794;9.820;2024-03-25T00:46:08;95521.59;;;14.95;58.46
40596;BME280;26304;48.794;9.820;2024-03-25T00:48:30;95507.78;;;14.94;58.58
40596;BME280;26304;48.794;9.820;2024-03-25T00:50:53;95511.13;;;14.95;58.66
40596;BME280;26304;48.794;9.820;2024-03-25T00:53:18;95515.25;;;14.92;57.81
40596;BME280;26304;48.794;9.820;2024-03-25T00:55:41;95509.59;;;14.86;59.02
40596;BME280;26304;48.794;9.820;2024-03-25T00:58:02;95508.88;;;14.93;58.76
40596;BME280;26304;48.794;9.820;2024-03-25T01:00:25;95514.09;;;14.89;58.59
40596;BME280;26304;48.794;9.820;2024-03-25T01:02:46;95507.78;;;14.94;58.05
40596;BME280;26304;48.794;9.820;2024-03-25T01:05:09;95508.50;;;14.87;58.65
40596;BME280;26304;48.794;9.820;2024-03-25T01:07:30;95507.75;;;14.91;58.38
40596;BME280;26304;48.794;9.820;2024-03-25T01:09:54;95504.38;;;14.90;58.15
40596;BME280;26304;48.794;9.820;2024-03-25T01:12:16;95495.06;;;14.93;58.57
40596;BME280;26304;48.794;9.820;2024-03-25T01:14:38;95495.44;;;14.91;58.16
40596;BME280;26304;48.794;9.820;2024-03-25T01:17:00;95505.53;;;14.93;57.73
40596;BME280;26304;48.794;9.820;2024-03-25T01:19:22;95497.66;;;14.85;57.34
40596;BME280;26304;48.794;9.820;2024-03-25T01:21:44;95496.16;;;14.88;56.50
40596;BME280;26304;48.794;9.820;2024-03-25T01:24:06;95499.13;;;14.86;57.23
40596;BME280;26304;48.794;9.820;2024-03-25T01:26:29;95501.38;;;14.84;57.71
40596;BME280;26304;48.794;9.820;2024-03-25T01:28:52;95495.06;;;14.89;58.37
40596;BME280;26304;48.794;9.820;2024-03-25T01:31:13;95495.81;;;14.93;58.56
40596;BME280;26304;48.794;9.820;2024-03-25T01:33:36;95493.91;;;14.90;58.74
40596;BME280;26304;48.794;9.820;2024-03-25T01:35:58;95485.69;;;14.92;58.73
40596;BME280;26304;48.794;9.820;2024-03-25T01:38:20;95493.91;;;14.90;58.19
40596;BME280;26304;48.794;9.820;2024-03-25T01:40:42;95488.31;;;14.92;58.29
40596;BME280;26304;48.794;9.820;2024-03-25T01:43:07;95485.31;;;14.89;58.71
40596;BME280;26304;48.794;9.820;2024-03-25T01:45:30;95488.31;;;14.92;58.14
40596;BME280;26304;48.794;9.820;2024-03-25T01:47:53;95479.34;;;14.89;58.47
40596;BME280;26304;48.794;9.820;2024-03-25T01:50:15;95480.81;;;14.90;58.61
40596;BME280;26304;48.794;9.820;2024-03-25T01:52:39;95483.44;;;14.90;58.13
40596;BME280;26304;48.794;9.820;2024-03-25T01:55:01;95486.44;;;14.88;58.06
40596;BME280;26304;48.794;9.820;2024-03-25T01:57:26;95480.44;;;14.84;58.53
40596;BME280;26304;48.794;9.820;2024-03-25T01:59:49;95486.78;;;14.83;58.53
40596;BME280;26304;48.794;9.820;2024-03-25T02:02:12;95480.06;;;14.82;58.28
40596;BME280;26304;48.794;9.820;2024-03-25T02:04:34;95479.66;;;14.80;57.87
40596;BME280;26304;48.794;9.820;2024-03-25T02:06:57;95486.41;;;14.81;57.39
40596;BME280;26304;48.794;9.820;2024-03-25T02:09:19;95485.31;;;14.82;58.14
40596;BME280;26304;48.794;9.820;2024-03-25T02:11:42;95486.41;;;14.81;57.98
40596;BME280;26304;48.794;9.820;2024-03-25T02:14:04;95486.44;;;14.88;57.82
40596;BME280;26304;48.794;9.820;2024-03-25T02:16:29;95488.66;;;14.86;57.89
40596;BME280;26304;48.794;9.820;2024-03-25T02:18:50;95496.16;;;14.84;57.61
40596;BME280;26304;48.794;9.820;2024-03-25T02:21:13;95489.03;;;14.88;59.03
40596;BME280;26304;48.794;9.820;2024-03-25T02:23:35;95487.19;;;14.89;58.76
40596;BME280;26304;48.794;9.820;2024-03-25T02:25:59;95492.41;;;14.85;58.40
40596;BME280;26304;48.794;9.820;2024-03-25T02:28:20;95486.41;;;14.85;58.70
40596;BME280;26304;48.794;9.820;2024-03-25T02:30:43;95483.44;;;14.83;58.44
40596;BME280;26304;48.794;9.820;2024-03-25T02:33:04;95486.41;;;14.81;58.83
40596;BME280;26304;48.794;9.820;2024-03-25T02:35:27;95485.66;;;14.81;58.50
40596;BME280;26304;48.794;9.820;2024-03-25T02:37:50;95482.66;;;14.79;58.24
40596;BME280;26304;48.794;9.820;2024-03-25T02:40:12;95484.91;;;14.80;58.73
40596;BME280;26304;48.794;9.820;2024-03-25T02:42:36;95486.75;;;14.76;58.32
40596;BME280;26304;48.794;9.820;2024-03-25T02:45:01;95490.13;;;14.77;58.64
40596;BME280;26304;48.794;9.820;2024-03-25T02:47:22;95489.34;;;14.73;57.70
40596;BME280;26304;48.794;9.820;2024-03-25T02:49:45;95492.34;;;14.75;57.87
40596;BME280;26304;48.794;9.820;2024-03-25T02:52:06;95496.81;;;14.74;58.13
40596;BME280;26304;48.794;9.820;2024-03-25T02:54:29;95493.47;;;14.77;58.38
40596;BME280;26304;48.794;9.820;2024-03-25T02:56:50;95496.88;;;14.78;58.52
40596;BME280;26304;48.794;9.820;2024-03-25T02:59:14;95496.09;;;14.77;58.48
40596;BME280;26304;48.794;9.820;2024-03-25T03:01:35;95500.59;;;14.80;57.80
40596;BME280;26304;48.794;9.820;2024-03-25T03:03:58;95495.00;;;14.82;58.24
40596;BME280;26304;48.794;9.820;2024-03-25T03:06:19;95500.63;;;14.84;57.58
40596;BME280;26304;48.794;9.820;2024-03-25T03:08:41;95495.41;;;14.84;57.95
40596;BME280;26304;48.794;9.820;2024-03-25T03:11:03;95498.75;;;14.84;57.92
40596;BME280;26304;48.794;9.820;2024-03-25T03:13:26;95501.38;;;14.84;57.56
40596;BME280;26304;48.794;9.820;2024-03-25T03:15:48;95498.38;;;14.82;57.88
40596;BME280;26304;48.794;9.820;2024-03-25T03:18:11;95493.16;;;14.82;57.72
40596;BME280;26304;48.794;9.820;2024-03-25T03:20:32;95495.75;;;14.82;57.84
40596;BME280;26304;48.794;9.820;2024-03-25T03:22:55;95495.75;;;14.82;57.70
40596;BME280;26304;48.794;9.820;2024-03-25T03:25:16;95489.03;;;14.81;57.68
40596;BME280;26304;48.794;9.820;2024-03-25T03:27:38;95489.03;;;14.81;57.76
40596;BME280;26304;48.794;9.820;2024-03-25T03:30:00;95497.25;;;14.80;57.80
40596;BME280;26304;48.794;9.820;2024-03-25T03:32:24;95490.91;;;14.81;58.07
40596;BME280;26304;48.794;9.820;2024-03-25T03:34:45;95495.00;;;14.82;57.99
40596;BME280;26304;48.794;9.820;2024-03-25T03:37:07;95494.63;;;14.80;58.05
40596;BME280;26304;48.794;9.820;2024-03-25T03:39:29;95491.25;;;14.79;57.53
40596;BME280;26304;48.794;9.820;2024-03-25T03:41:51;95495.34;;;14.77;57.73
40596;BME280;26304;48.794;9.820;2024-03-25T03:44:13;95495.72;;;14.75;57.60
40596;BME280;26304;48.794;9.820;2024-03-25T03:46:36;95496.09;;;14.74;58.64
40596;BME280;26304;48.794;9.820;2024-03-25T03:48:59;95497.97;;;14.73;57.43
40596;BME280;26304;48.794;9.820;2024-03-25T03:51:21;95500.56;;;14.69;58.24
40596;BME280;26304;48.794;9.820;2024-03-25T03:53:42;95489.72;;;14.71;58.11
40596;BME280;26304;48.794;9.820;2024-03-25T03:56:05;95482.63;;;14.68;57.69
40596;BME280;26304;48.794;9.820;2024-03-25T03:58:27;95478.88;;;14.69;58.13
40596;BME280;26304;48.794;9.820;2024-03-25T04:00:50;95489.31;;;14.69;58.29
40596;BME280;26304;48.794;9.820;2024-03-25T04:03:12;95487.06;;;14.67;57.94
40596;BME280;26304;48.794;9.820;2024-03-25T04:05:35;95491.56;;;14.67;58.12
40596;BME280;26304;48.794;9.820;2024-03-25T04:07:57;95488.94;;;14.67;57.81
40596;BME280;26304;48.794;9.820;2024-03-25T04:10:19;95491.56;;;14.67;58.45
40596;BME280;26304;48.794;9.820;2024-03-25T04:12:41;95489.31;;;14.69;58.10
40596;BME280;26304;48.794;9.820;2024-03-25T04:15:03;95496.81;;;14.70;58.01
40596;BME280;26304;48.794;9.820;2024-03-25T04:17:25;95502.03;;;14.70;57.76
40596;BME280;26304;48.794;9.820;2024-03-25T04:19:47;95499.41;;;14.63;57.79
40596;BME280;26304;48.794;9.820;2024-03-25T04:22:10;95501.25;;;14.63;57.58
40596;BME280;26304;48.794;9.820;2024-03-25T04:24:33;95505.75;;;14.66;58.45
40596;BME280;26304;48.794;9.820;2024-03-25T04:26:55;95501.31;;;14.70;58.36
40596;BME280;26304;48.794;9.820;2024-03-25T04:29:18;95501.66;;;14.68;57.78
40596;BME280;26304;48.794;9.820;2024-03-25T04:31:39;95501.31;;;14.70;58.62
40596;BME280;26304;48.794;9.820;2024-03-25T04:34:01;95502.75;;;14.64;57.28
40596;BME280;26304;48.794;9.820;2024-03-25T04:36:23;95510.97;;;14.66;57.53
40596;BME280;26304;48.794;9.820;2024-03-25T04:38:47;95503.56;;;14.71;57.54
40596;BME280;26304;48.794;9.820;2024-03-25T04:41:08;95505.03;;;14.69;57.44
40596;BME280;26304;48.794;9.820;2024-03-25T04:43:29;95506.91;;;14.68;57.35
40596;BME280;26304;48.794;9.820;2024-03-25T04:45:51;95510.25;;;14.69;57.64
40596;BME280;26304;48.794;9.820;2024-03-25T04:48:12;95506.53;;;14.70;58.12
40596;BME280;26304;48.794;9.820;2024-03-25T04:50:34;95505.81;;;14.73;57.38
40596;BME280;26304;48.794;9.820;2024-03-25T04:52:55;95505.81;;;14.73;58.58
40596;BME280;26304;48.794;9.820;2024-03-25T04:55:18;95506.53;;;14.74;57.63
40596;BME280;26304;48.794;9.820;2024-03-25T04:57:39;95512.16;;;14.76;57.56
40596;BME280;26304;48.794;9.820;2024-03-25T05:00:01;95508.03;;;14.71;57.73
40596;BME280;26304;48.794;9.820;2024-03-25T05:02:23;95507.66;;;14.73;58.05
40596;BME280;26304;48.794;9.820;2024-03-25T05:04:44;95513.28;;;14.71;58.19
40596;BME280;26304;48.794;9.820;2024-03-25T05:07:05;95520.00;;;14.76;57.61
40596;BME280;26304;48.794;9.820;2024-03-25T05:09:27;95518.88;;;14.73;57.76
40596;BME280;26304;48.794;9.820;2024-03-25T05:11:50;95514.75;;;14.72;57.83
40596;BME280;26304;48.794;9.820;2024-03-25T05:14:11;95517.75;;;14.74;58.71
40596;BME280;26304;48.794;9.820;2024-03-25T05:16:33;95517.81;;;14.81;58.30
40596;BME280;26304;48.794;9.820;2024-03-25T05:18:54;95525.66;;;14.85;58.10
40596;BME280;26304;48.794;9.820;2024-03-25T05:21:16;95519.34;;;14.89;58.25
40596;BME280;26304;48.794;9.820;2024-03-25T05:23:37;95526.03;;;14.80;57.58
40596;BME280;26304;48.794;9.820;2024-03-25T05:25:58;95535.75;;;14.79;58.33
40596;BME280;26304;48.794;9.820;2024-03-25T05:28:21;95536.84;;;14.78;58.29
40596;BME280;26304;48.794;9.820;2024-03-25T05:30:43;95537.94;;;14.77;58.23
40596;BME280;26304;48.794;9.820;2024-03-25T05:33:04;95540.25;;;14.82;58.11
40596;BME280;26304;48.794;9.820;2024-03-25T05:35:26;95550.38;;;14.87;58.57
40596;BME280;26304;48.794;9.820;2024-03-25T05:37:47;95541.00;;;14.83;57.80
40596;BME280;26304;48.794;9.820;2024-03-25T05:40:10;95538.00;;;14.84;58.05
40596;BME280;26304;48.794;9.820;2024-03-25T05:42:32;95536.84;;;14.78;57.86
40596;BME280;26304;48.794;9.820;2024-03-25T05:44:54;95545.41;;;14.75;58.57
40596;BME280;26304;48.794;9.820;2024-03-25T05:47:16;95527.91;;;14.79;57.81
40596;BME280;26304;48.794;9.820;2024-03-25T05:49:37;95539.44;;;14.71;58.31
40596;BME280;26304;48.794;9.820;2024-03-25T05:51:59;95543.16;;;14.70;58.12
40596;BME280;26304;48.794;9.820;2024-03-25T05:54:20;95546.94;;;14.76;57.77
40596;BME280;26304;48.794;9.820;2024-03-25T05:56:42;95546.22;;;14.79;58.13
40596;BME280;26304;48.794;9.820;2024-03-25T05:59:03;95547.69;;;14.80;57.61
40596;BME280;26304;48.794;9.820;2024-03-25T06:01:26;95543.59;;;14.79;58.30
40596;BME280;26304;48.794;9.820;2024-03-25T06:03:48;95546.22;;;14.79;58.03
40596;BME280;26304;48.794;9.820;2024-03-25T06:06:09;95540.97;;;14.79;57.85
40596;BME280;26304;48.794;9.820;2024-03-25T06:08:31;95547.69;;;14.80;57.65
40596;BME280;26304;48.794;9.820;2024-03-25T06:10:53;95549.56;;;14.76;57.14
40596;BME280;26304;48.794;9.820;2024-03-25T06:13:14;95542.06;;;14.75;57.67
40596;BME280;26304;48.794;9.820;2024-03-25T06:15:36;95542.50;;;14.87;59.59
40596;BME280;26304;48.794;9.820;2024-03-25T06:17:59;95545.06;;;14.80;58.59
40596;BME280;26304;48.794;9.820;2024-03-25T06:20:20;95542.78;;;14.71;58.04
40596;BME280;26304;48.794;9.820;2024-03-25T06:22:41;95532.31;;;14.71;57.55
40596;BME280;26304;48.794;9.820;2024-03-25T06:25:03;95535.31;;;14.70;57.55
40596;BME280;26304;48.794;9.820;2024-03-25T06:27:25;95539.81;;;14.73;57.70
40596;BME280;26304;48.794;9.820;2024-03-25T06:29:46;95528.56;;;14.73;58.55
40596;BME280;26304;48.794;9.820;2024-03-25T06:32:08;95537.19;;;14.73;57.59
40596;BME280;26304;48.794;9.820;2024-03-25T06:34:49;95534.97;;;14.75;57.28
40596;BME280;26304;48.794;9.820;2024-03-25T06:37:10;95548.41;;;14.77;57.28
40596;BME280;26304;48.794;9.820;2024-03-25T06:39:32;95540.91;;;14.72;56.98
40596;BME280;26304;48.794;9.820;2024-03-25T06:41:53;95541.66;;;14.69;57.15
40596;BME280;26304;48.794;9.820;2024-03-25T06:44:15;95537.56;;;14.71;57.29
40596;BME280;26304;48.794;9.820;2024-03-25T06:46:36;95529.69;;;14.68;56.89
40596;BME280;26304;48.794;9.820;2024-03-25T06:48:58;95539.03;;;14.69;56.84
40596;BME280;26304;48.794;9.820;2024-03-25T06:51:20;95546.13;;;14.68;56.80
40596;BME280;26304;48.794;9.820;2024-03-25T06:53:42;95538.66;;;14.70;56.55
40596;BME280;26304;48.794;9.820;2024-03-25T06:56:03;95541.28;;;14.70;57.09
40596;BME280;26304;48.794;9.820;2024-03-25T06:58:26;95542.78;;;14.71;56.66
40596;BME280;26304;48.794;9.820;2024-03-25T07:00:47;95541.66;;;14.69;57.02
40596;BME280;26304;48.794;9.820;2024-03-25T07:03:09;95557.34;;;14.69;56.54
40596;BME280;26304;48.794;9.820;2024-03-25T07:05:31;95559.97;;;14.69;56.50
40596;BME280;26304;48.794;9.820;2024-03-25T07:07:53;95557.34;;;14.69;56.95
40596;BME280;26304;48.794;9.820;2024-03-25T07:10:15;95556.59;;;14.68;57.05
40596;BME280;26304;48.794;9.820;2024-03-25T07:12:36;95556.59;;;14.68;56.96
40596;BME280;26304;48.794;9.820;2024-03-25T07:14:58;95558.09;;;14.69;56.84
40596;BME280;26304;48.794;9.820;2024-03-25T07:17:19;95559.97;;;14.69;56.79
40596;BME280;26304;48.794;9.820;2024-03-25T07:19:41;95549.84;;;14.67;56.91
40596;BME280;26304;48.794;9.820;2024-03-25T07:22:03;95560.72;;;14.69;56.67
40596;BME280;26304;48.794;9.820;2024-03-25T07:24:26;95562.56;;;14.69;56.15
40596;BME280;26304;48.794;9.820;2024-03-25T07:26:47;95563.34;;;14.69;56.45
40596;BME280;26304;48.794;9.820;2024-03-25T07:29:09;95564.81;;;14.67;56.41
40596;BME280;26304;48.794;9.820;2024-03-25T07:31:30;95571.91;;;14.66;56.48
40596;BME280;26304;48.794;9.820;2024-03-25T07:33:52;95571.56;;;14.68;56.07
40596;BME280;26304;48.794;9.820;2024-03-25T07:36:13;95573.75;;;14.66;56.75
40596;BME280;26304;48.794;9.820;2024-03-25T07:38:35;95571.91;;;14.66;56.13
40596;BME280;26304;48.794;9.820;2024-03-25T07:41:03;95572.28;;;14.65;56.27
40596;BME280;26304;48.794;9.820;2024-03-25T07:43:24;95574.16;;;14.68;56.68
40596;BME280;26304;48.794;9.820;2024-03-25T07:45:45;95566.28;;;14.64;56.69
40596;BME280;26304;48.794;9.820;2024-03-25T07:48:07;95573.75;;;14.62;56.24
40596;BME280;26304;48.794;9.820;2024-03-25T07:50:29;95564.44;;;14.65;56.52
40596;BME280;26304;48.794;9.820;2024-03-25T07:52:50;95565.91;;;14.66;56.08
40596;BME280;26304;48.794;9.820;2024-03-25T07:55:12;95559.19;;;14.65;55.98
40596;BME280;26304;48.794;9.820;2024-03-25T07:57:35;95560.31;;;14.64;56.55
40596;BME280;26304;48.794;9.820;2024-03-25T07:59:57;95578.59;;;14.64;56.01
40596;BME280;26304;48.794;9.820;2024-03-25T08:02:18;95574.47;;;14.63;56.12
40596;BME280;26304;48.794;9.820;2024-03-25T08:04:40;95571.13;;;14.62;56.27
40596;BME280;26304;48.794;9.820;2024-03-25T08:07:01;95576.34;;;14.62;56.29
40596;BME280;26304;48.794;9.820;2024-03-25T08:09:23;95573.75;;;14.62;56.17
40596;BME280;26304;48.794;9.820;2024-03-25T08:11:44;95571.50;;;14.61;56.02
40596;BME280;26304;48.794;9.820;2024-03-25T08:14:07;95574.09;;;14.61;56.25
40596;BME280;26304;48.794;9.820;2024-03-25T08:16:28;95574.47;;;14.63;56.50
40596;BME280;26304;48.794;9.820;2024-03-25T08:18:50;95576.34;;;14.62;56.47
40596;BME280;26304;48.794;9.820;2024-03-25T08:21:11;95575.22;;;14.60;56.54
40596;BME280;26304;48.794;9.820;2024-03-25T08:23:33;95569.25;;;14.63;56.51
40596;BME280;26304;48.794;9.820;2024-03-25T08:25:54;95570.75;;;14.64;56.46
40596;BME280;26304;48.794;9.820;2024-03-25T08:28:16;95576.72;;;14.64;55.93
40596;BME280;26304;48.794;9.820;2024-03-25T08:30:38;95573.00;;;14.62;55.82
40596;BME280;26304;48.794;9.820;2024-03-25T08:33:00;95564.03;;;14.63;55.75
40596;BME280;26304;48.794;9.820;2024-03-25T08:35:21;95564.03;;;14.63;56.37
40596;BME280;26304;48.794;9.820;2024-03-25T08:37:43;95556.59;;;14.65;55.90
40596;BME280;26304;48.794;9.820;2024-03-25T08:40:06;95556.94;;;14.63;56.42
40596;BME280;26304;48.794;9.820;2024-03-25T08:42:27;95553.59;;;14.66;55.67
40596;BME280;26304;48.794;9.820;2024-03-25T08:44:49;95555.44;;;14.66;56.02
40596;BME280;26304;48.794;9.820;2024-03-25T08:47:12;95559.97;;;14.69;55.85
40596;BME280;26304;48.794;9.820;2024-03-25T08:49:33;95550.63;;;14.68;56.38
40596;BME280;26304;48.794;9.820;2024-03-25T08:51:55;95549.13;;;14.67;55.95
40596;BME280;26304;48.794;9.820;2024-03-25T08:54:16;95549.84;;;14.67;56.30
40596;BME280;26304;48.794;9.820;2024-03-25T08:56:37;95547.59;;;14.66;56.39
40596;BME280;26304;48.794;9.820;2024-03-25T08:58:59;95540.16;;;14.68;56.23
40596;BME280;26304;48.794;9.820;2024-03-25T09:01:21;95537.53;;;14.68;56.40
40596;BME280;26304;48.794;9.820;2024-03-25T09:03:44;95533.41;;;14.67;56.32
40596;BME280;26304;48.794;9.820;2024-03-25T09:06:05;95528.19;;;14.67;55.94
40596;BME280;26304;48.794;9.820;2024-03-25T09:08:27;95525.94;;;14.65;56.31
40596;BME280;26304;48.794;9.820;2024-03-25T09:10:48;95528.56;;;14.69;56.23
40596;BME280;26304;48.794;9.820;2024-03-25T09:13:25;95531.94;;;14.69;56.37
40596;BME280;26304;48.794;9.820;2024-03-25T09:15:46;95522.22;;;14.70;55.85
40596;BME280;26304;48.794;9.820;2024-03-25T09:18:08;95515.88;;;14.71;56.43
40596;BME280;26304;48.794;9.820;2024-03-25T09:20:31;95509.53;;;14.72;56.38
40596;BME280;26304;48.794;9.820;2024-03-25T09:22:52;95509.53;;;14.72;56.27
40596;BME280;26304;48.794;9.820;2024-03-25T09:25:14;95502.81;;;14.71;55.85
40596;BME280;26304;48.794;9.820;2024-03-25T09:27:36;95501.31;;;14.74;55.99
40596;BME280;26304;48.794;9.820;2024-03-25T09:29:57;95497.59;;;14.75;55.94
40596;BME280;26304;48.794;9.820;2024-03-25T09:32:19;95493.09;;;14.75;56.24
40596;BME280;26304;48.794;9.820;2024-03-25T09:34:40;95500.94;;;14.75;55.86
40596;BME280;26304;48.794;9.820;2024-03-25T09:37:03;95490.13;;;14.77;56.39
40596;BME280;26304;48.794;9.820;2024-03-25T09:39:25;95486.75;;;14.76;55.97
40596;BME280;26304;48.794;9.820;2024-03-25T09:41:47;95490.84;;;14.77;56.06
40596;BME280;26304;48.794;9.820;2024-03-25T09:44:09;95490.50;;;14.79;56.00
40596;BME280;26304;48.794;9.820;2024-03-25T09:46:31;95495.75;;;14.82;56.22
40596;BME280;26304;48.794;9.820;2024-03-25T09:48:53;95489.03;;;14.81;55.76
40596;BME280;26304;48.794;9.820;2024-03-25T09:51:14;95489.75;;;14.78;56.28
40596;BME280;26304;48.794;9.820;2024-03-25T09:53:37;95483.41;;;14.79;56.21
40596;BME280;26304;48.794;9.820;2024-03-25T09:56:00;95488.66;;;14.79;56.25
40596;BME280;26304;48.794;9.820;2024-03-25T09:58:22;95484.91;;;14.80;55.91
40596;BME280;26304;48.794;9.820;2024-03-25T10:00:45;95481.16;;;14.78;56.35
40596;BME280;26304;48.794;9.820;2024-03-25T10:03:07;95477.47;;;14.82;56.31
40596;BME280;26304;48.794;9.820;2024-03-25T10:05:28;95467.00;;;14.82;55.89
40596;BME280;26304;48.794;9.820;2024-03-25T10:07:50;95474.47;;;14.84;55.97
40596;BME280;26304;48.794;9.820;2024-03-25T10:10:13;95470.72;;;14.85;56.01
40596;BME280;26304;48.794;9.820;2024-03-25T10:12:36;95466.63;;;14.87;56.57
40596;BME280;26304;48.794;9.820;2024-03-25T10:14:57;95458.78;;;14.87;56.11
40596;BME280;26304;48.794;9.820;2024-03-25T10:17:19;95455.03;;;14.88;56.33
40596;BME280;26304;48.794;9.820;2024-03-25T10:19:40;95452.41;;;14.88;55.82
40596;BME280;26304;48.794;9.820;2024-03-25T10:22:03;95456.16;;;14.87;56.07
40596;BME280;26304;48.794;9.820;2024-03-25T10:24:25;95449.84;;;14.92;55.74
40596;BME280;26304;48.794;9.820;2024-03-25T10:26:49;95449.41;;;14.79;56.64
40596;BME280;26304;48.794;9.820;2024-03-25T10:29:10;95446.06;;;14.82;56.41
40596;BME280;26304;48.794;9.820;2024-03-25T10:31:32;95436.72;;;14.85;56.70
40596;BME280;26304;48.794;9.820;2024-03-25T10:33:54;95431.88;;;14.91;56.69
40596;BME280;26304;48.794;9.820;2024-03-25T10:36:16;95433.00;;;14.93;56.68
40596;BME280;26304;48.794;9.820;2024-03-25T10:38:37;95431.16;;;14.94;56.29
40596;BME280;26304;48.794;9.820;2024-03-25T10:40:59;95427.44;;;14.98;57.31
40596;BME280;26304;48.794;9.820;2024-03-25T10:43:24;95416.59;;;15.00;56.46
40596;BME280;26304;48.794;9.820;2024-03-25T10:45:49;95413.19;;;14.96;56.87
40596;BME280;26304;48.794;9.820;2024-03-25T10:48:21;95413.97;;;15.00;57.17
40596;BME280;26304;48.794;9.820;2024-03-25T10:50:47;95404.63;;;14.99;57.09
40596;BME280;26304;48.794;9.820;2024-03-25T10:53:11;95405.72;;;14.98;57.00
40596;BME280;26304;48.794;9.820;2024-03-25T10:55:34;95393.00;;;14.96;56.89
40596;BME280;26304;48.794;9.820;2024-03-25T10:57:56;95398.25;;;14.96;56.44
40596;BME280;26304;48.794;9.820;2024-03-25T11:00:22;95397.50;;;14.92;56.84
40596;BME280;26304;48.794;9.820;2024-03-25T11:02:44;95387.78;;;14.93;56.40
40596;BME280;26304;48.794;9.820;2024-03-25T11:05:06;95391.53;;;14.95;56.30
40596;BME280;26304;48.794;9.820;2024-03-25T11:07:30;95388.91;;;14.95;56.47
40596;BME280;26304;48.794;9.820;2024-03-25T11:10:02;95393.78;;;14.97;56.60
40596;BME280;26304;48.794;9.820;2024-03-25T11:12:32;95385.53;;;14.95;56.19
40596;BME280;26304;48.794;9.820;2024-03-25T11:14:57;95390.75;;;14.95;56.22
40596;BME280;26304;48.794;9.820;2024-03-25T11:17:19;95389.28;;;14.94;56.67
40596;BME280;26304;48.794;9.820;2024-03-25T11:19:41;95380.28;;;14.95;56.13
40596;BME280;26304;48.794;9.820;2024-03-25T11:22:07;95384.41;;;14.96;56.15
40596;BME280;26304;48.794;9.820;2024-03-25T11:24:28;95383.69;;;14.99;56.00
40596;BME280;26304;48.794;9.820;2024-03-25T11:26:51;95379.91;;;14.96;56.15
40596;BME280;26304;48.794;9.820;2024-03-25T11:29:14;95371.34;;;14.96;56.13
40596;BME280;26304;48.794;9.820;2024-03-25T11:31:38;95377.31;;;14.96;55.91
40596;BME280;26304;48.794;9.820;2024-03-25T11:34:05;95374.31;;;14.98;56.60
40596;BME280;26304;48.794;9.820;2024-03-25T11:36:27;95361.63;;;15.00;56.39
40596;BME280;26304;48.794;9.820;2024-03-25T11:38:57;95360.13;;;14.99;56.10
40596;BME280;26304;48.794;9.820;2024-03-25T11:41:19;95363.13;;;15.01;56.08
40596;BME280;26304;48.794;9.820;2024-03-25T11:43:41;95359.75;;;15.00;56.17
40596;BME280;26304;48.794;9.820;2024-03-25T11:46:03;95360.50;;;15.01;56.03
40596;BME280;26304;48.794;9.820;2024-03-25T11:48:25;95345.16;;;15.03;55.86
40596;BME280;26304;48.794;9.820;2024-03-25T11:50:48;95360.88;;;15.03;55.86
40596;BME280;26304;48.794;9.820;2024-03-25T11:53:09;95339.94;;;15.03;55.98
40596;BME280;26304;48.794;9.820;2024-03-25T11:55:31;95340.69;;;15.07;56.15
40596;BME280;26304;48.794;9.820;2024-03-25T11:57:56;95330.97;;;15.04;55.79
40596;BME280;26304;48.794;9.820;2024-03-25T12:00:19;95335.47;;;15.07;56.37
40596;BME280;26304;48.794;9.820;2024-03-25T12:02:43;95329.13;;;15.08;55.93
40596;BME280;26304;48.794;9.820;2024-03-25T12:05:06;95327.25;;;15.08;56.30
40596;BME280;26304;48.794;9.820;2024-03-25T12:07:29;95320.88;;;15.10;56.14
40596;BME280;26304;48.794;9.820;2024-03-25T12:09:50;95314.16;;;15.12;55.65
40596;BME280;26304;48.794;9.820;2024-03-25T12:12:41;95306.28;;;15.12;55.95
40596;BME280;26304;48.794;9.820;2024-03-25T12:15:04;95298.84;;;15.14;55.90
40596;BME280;26304;48.794;9.820;2024-03-25T12:17:25;95303.34;;;15.17;55.87
40596;BME280;26304;48.794;9.820;2024-03-25T12:19:58;95289.84;;;15.15;55.77
40596;BME280;26304;48.794;9.820;2024-03-25T12:22:19;95277.16;;;15.17;56.20
40596;BME280;26304;48.794;9.820;2024-03-25T12:24:42;95280.88;;;15.16;56.11
40596;BME280;26304;48.794;9.820;2024-03-25T12:27:09;95273.41;;;15.18;55.55
40596;BME280;26304;48.794;9.820;2024-03-25T12:29:31;95271.50;;;15.19;56.14
40596;BME280;26304;48.794;9.820;2024-03-25T12:31:56;95267.78;;;15.20;55.58
40596;BME280;26304;48.794;9.820;2024-03-25T12:34:17;95256.19;;;15.21;55.90